sensor_id;sensor_type;location;lat;lon;timestamp;P1;durP1;ratioP1;P2;durP2;ratioP2
5754;SDS011;2902;42.130;24.732;2023-04-06T00:00:22;9.00;;;8.40;;
5754;SDS011;2902;42.130;24.732;2023-04-06T00:02:49;9.90;;;9.20;;
5754;SDS011;2902;42.130;24.732;2023-04-06T00:05:18;8.57;;;8.07;;
5754;SDS011;2902;42.130;24.732;2023-04-06T00:07:45;9.13;;;8.53;;
5754;SDS011;2902;42.130;24.732;2023-04-06T00:10:12;9.37;;;8.70;;
5754;SDS011;2902;42.130;24.732;2023-04-06T00:12:39;9.67;;;8.97;;
5754;SDS011;2902;42.130;24.732;2023-04-06T00:15:06;9.10;;;8.23;;
5754;SDS011;2902;42.130;24.732;2023-04-06T00:17:33;9.00;;;8.40;;
5754;SDS011;2902;42.130;24.732;2023-04-06T00:20:00;9.63;;;9.03;;
5754;SDS011;2902;42.130;24.732;2023-04-06T00:22:28;9.47;;;8.67;;
5754;SDS011;2902;42.130;24.732;2023-04-06T00:24:55;9.17;;;8.57;;
5754;SDS011;2902;42.130;24.732;2023-04-06T00:27:22;9.63;;;8.83;;
5754;SDS011;2902;42.130;24.732;2023-04-06T00:29:49;9.17;;;8.50;;
5754;SDS011;2902;42.130;24.732;2023-04-06T00:32:15;9.67;;;8.80;;
5754;SDS011;2902;42.130;24.732;2023-04-06T00:34:42;9.27;;;8.57;;
5754;SDS011;2902;42.130;24.732;2023-04-06T00:37:10;10.00;;;9.27;;
5754;SDS011;2902;42.130;24.732;2023-04-06T00:39:38;9.80;;;9.00;;
5754;SDS011;2902;42.130;24.732;2023-04-06T00:42:07;8.97;;;8.37;;
5754;SDS011;2902;42.130;24.732;2023-04-06T00:44:37;9.37;;;8.67;;
5754;SDS011;2902;42.130;24.732;2023-04-06T00:47:04;8.87;;;8.37;;
5754;SDS011;2902;42.130;24.732;2023-04-06T00:49:31;9.53;;;8.93;;
5754;SDS011;2902;42.130;24.732;2023-04-06T00:51:58;9.43;;;8.73;;
5754;SDS011;2902;42.130;24.732;2023-04-06T00:54:26;9.50;;;8.90;;
5754;SDS011;2902;42.130;24.732;2023-04-06T00:56:54;9.43;;;8.63;;
5754;SDS011;2902;42.130;24.732;2023-04-06T00:59:22;10.50;;;9.63;;
5754;SDS011;2902;42.130;24.732;2023-04-06T01:01:48;10.20;;;9.40;;
5754;SDS011;2902;42.130;24.732;2023-04-06T01:04:15;10.23;;;9.47;;
5754;SDS011;2902;42.130;24.732;2023-04-06T01:06:42;10.03;;;9.23;;
5754;SDS011;2902;42.130;24.732;2023-04-06T01:09:09;9.90;;;9.20;;
5754;SDS011;2902;42.130;24.732;2023-04-06T01:11:37;9.90;;;9.20;;
5754;SDS011;2902;42.130;24.732;2023-04-06T01:14:05;10.63;;;9.67;;
5754;SDS011;2902;42.130;24.732;2023-04-06T01:16:32;9.73;;;9.03;;
5754;SDS011;2902;42.130;24.732;2023-04-06T01:19:00;10.10;;;9.40;;
5754;SDS011;2902;42.130;24.732;2023-04-06T01:21:27;10.93;;;10.13;;
5754;SDS011;2902;42.130;24.732;2023-04-06T01:23:55;9.50;;;8.90;;
5754;SDS011;2902;42.130;24.732;2023-04-06T01:26:22;9.40;;;8.80;;
5754;SDS011;2902;42.130;24.732;2023-04-06T01:28:49;9.63;;;8.97;;
5754;SDS011;2902;42.130;24.732;2023-04-06T01:31:16;9.10;;;8.37;;
5754;SDS011;2902;42.130;24.732;2023-04-06T01:33:42;9.17;;;8.50;;
5754;SDS011;2902;42.130;24.732;2023-04-06T01:36:10;8.47;;;7.97;;
5754;SDS011;2902;42.130;24.732;2023-04-06T01:38:37;8.60;;;8.03;;
5754;SDS011;2902;42.130;24.732;2023-04-06T01:41:05;9.83;;;9.03;;
5754;SDS011;2902;42.130;24.732;2023-04-06T01:43:32;8.63;;;7.97;;
5754;SDS011;2902;42.130;24.732;2023-04-06T01:45:58;9.03;;;8.43;;
5754;SDS011;2902;42.130;24.732;2023-04-06T01:48:25;9.40;;;8.70;;
5754;SDS011;2902;42.130;24.732;2023-04-06T01:50:52;10.20;;;9.43;;
5754;SDS011;2902;42.130;24.732;2023-04-06T01:53:19;10.50;;;9.70;;
5754;SDS011;2902;42.130;24.732;2023-04-06T01:55:46;8.77;;;8.27;;
5754;SDS011;2902;42.130;24.732;2023-04-06T01:58:14;9.60;;;9.00;;
5754;SDS011;2902;42.130;24.732;2023-04-06T02:00:41;9.97;;;9.20;;
5754;SDS011;2902;42.130;24.732;2023-04-06T02:03:07;8.70;;;8.20;;
5754;SDS011;2902;42.130;24.732;2023-04-06T02:05:34;10.37;;;9.57;;
5754;SDS011;2902;42.130;24.732;2023-04-06T02:08:03;11.80;;;10.70;;
5754;SDS011;2902;42.130;24.732;2023-04-06T02:10:30;10.33;;;9.53;;
5754;SDS011;2902;42.130;24.732;2023-04-06T02:12:57;10.50;;;9.53;;
5754;SDS011;2902;42.130;24.732;2023-04-06T02:15:25;10.93;;;10.03;;
5754;SDS011;2902;42.130;24.732;2023-04-06T02:17:52;11.57;;;10.57;;
5754;SDS011;2902;42.130;24.732;2023-04-06T02:20:19;11.30;;;10.40;;
5754;SDS011;2902;42.130;24.732;2023-04-06T02:22:46;10.60;;;9.77;;
5754;SDS011;2902;42.130;24.732;2023-04-06T02:25:13;11.13;;;10.23;;
5754;SDS011;2902;42.130;24.732;2023-04-06T02:27:39;11.00;;;10.17;;
5754;SDS011;2902;42.130;24.732;2023-04-06T02:30:06;11.97;;;10.87;;
5754;SDS011;2902;42.130;24.732;2023-04-06T02:32:35;11.63;;;10.43;;
5754;SDS011;2902;42.130;24.732;2023-04-06T02:35:02;10.70;;;9.77;;
5754;SDS011;2902;42.130;24.732;2023-04-06T02:37:29;13.07;;;11.73;;
5754;SDS011;2902;42.130;24.732;2023-04-06T02:39:56;12.43;;;11.33;;
5754;SDS011;2902;42.130;24.732;2023-04-06T02:42:23;11.20;;;10.20;;
5754;SDS011;2902;42.130;24.732;2023-04-06T02:44:49;12.17;;;11.30;;
5754;SDS011;2902;42.130;24.732;2023-04-06T02:47:16;11.27;;;10.43;;
5754;SDS011;2902;42.130;24.732;2023-04-06T02:49:44;10.57;;;9.77;;
5754;SDS011;2902;42.130;24.732;2023-04-06T02:52:11;11.83;;;10.73;;
5754;SDS011;2902;42.130;24.732;2023-04-06T02:54:38;11.07;;;10.10;;
5754;SDS011;2902;42.130;24.732;2023-04-06T02:57:04;10.73;;;9.80;;
5754;SDS011;2902;42.130;24.732;2023-04-06T02:59:31;11.70;;;10.73;;
5754;SDS011;2902;42.130;24.732;2023-04-06T03:01:58;10.33;;;9.43;;
5754;SDS011;2902;42.130;24.732;2023-04-06T03:04:25;10.97;;;10.07;;
5754;SDS011;2902;42.130;24.732;2023-04-06T03:06:53;12.07;;;10.27;;
5754;SDS011;2902;42.130;24.732;2023-04-06T03:09:21;10.50;;;9.80;;
5754;SDS011;2902;42.130;24.732;2023-04-06T03:11:47;11.40;;;10.33;;
5754;SDS011;2902;42.130;24.732;2023-04-06T03:14:14;10.67;;;9.77;;
5754;SDS011;2902;42.130;24.732;2023-04-06T03:16:42;10.50;;;9.50;;
5754;SDS011;2902;42.130;24.732;2023-04-06T03:19:09;10.97;;;9.97;;
5754;SDS011;2902;42.130;24.732;2023-04-06T03:21:36;10.30;;;9.40;;
5754;SDS011;2902;42.130;24.732;2023-04-06T03:24:04;11.20;;;10.20;;
5754;SDS011;2902;42.130;24.732;2023-04-06T03:26:32;12.40;;;11.40;;
5754;SDS011;2902;42.130;24.732;2023-04-06T03:28:58;11.53;;;10.53;;
5754;SDS011;2902;42.130;24.732;2023-04-06T03:31:25;11.93;;;10.93;;
5754;SDS011;2902;42.130;24.732;2023-04-06T03:33:52;11.70;;;10.70;;
5754;SDS011;2902;42.130;24.732;2023-04-06T03:36:19;12.53;;;11.37;;
5754;SDS011;2902;42.130;24.732;2023-04-06T03:38:45;12.10;;;11.10;;
5754;SDS011;2902;42.130;24.732;2023-04-06T03:41:13;11.40;;;10.40;;
5754;SDS011;2902;42.130;24.732;2023-04-06T03:43:41;11.40;;;10.40;;
5754;SDS011;2902;42.130;24.732;2023-04-06T03:46:07;11.27;;;10.37;;
5754;SDS011;2902;42.130;24.732;2023-04-06T03:48:34;13.10;;;10.67;;
5754;SDS011;2902;42.130;24.732;2023-04-06T03:51:01;11.57;;;10.67;;
5754;SDS011;2902;42.130;24.732;2023-04-06T03:53:28;11.60;;;10.37;;
5754;SDS011;2902;42.130;24.732;2023-04-06T03:55:54;11.87;;;10.97;;
5754;SDS011;2902;42.130;24.732;2023-04-06T03:58:23;12.77;;;11.67;;
5754;SDS011;2902;42.130;24.732;2023-04-06T04:00:49;12.93;;;11.83;;
5754;SDS011;2902;42.130;24.732;2023-04-06T04:03:16;12.87;;;11.57;;
5754;SDS011;2902;42.130;24.732;2023-04-06T04:05:43;11.13;;;10.10;;
5754;SDS011;2902;42.130;24.732;2023-04-06T04:08:10;11.90;;;10.77;;
5754;SDS011;2902;42.130;24.732;2023-04-06T04:10:37;12.23;;;11.33;;
5754;SDS011;2902;42.130;24.732;2023-04-06T04:13:03;12.37;;;11.20;;
5754;SDS011;2902;42.130;24.732;2023-04-06T04:15:31;11.67;;;10.67;;
5754;SDS011;2902;42.130;24.732;2023-04-06T04:17:58;13.23;;;10.77;;
5754;SDS011;2902;42.130;24.732;2023-04-06T04:20:25;12.03;;;11.03;;
5754;SDS011;2902;42.130;24.732;2023-04-06T04:22:53;12.37;;;11.33;;
5754;SDS011;2902;42.130;24.732;2023-04-06T04:25:20;11.50;;;10.47;;
5754;SDS011;2902;42.130;24.732;2023-04-06T04:27:46;11.30;;;10.27;;
5754;SDS011;2902;42.130;24.732;2023-04-06T04:30:13;11.60;;;10.47;;
5754;SDS011;2902;42.130;24.732;2023-04-06T04:32:41;13.10;;;9.23;;
5754;SDS011;2902;42.130;24.732;2023-04-06T04:35:08;11.23;;;10.33;;
5754;SDS011;2902;42.130;24.732;2023-04-06T04:37:36;9.50;;;8.80;;
5754;SDS011;2902;42.130;24.732;2023-04-06T04:40:03;10.30;;;9.57;;
5754;SDS011;2902;42.130;24.732;2023-04-06T04:42:31;10.53;;;9.53;;
5754;SDS011;2902;42.130;24.732;2023-04-06T04:44:57;11.53;;;10.50;;
5754;SDS011;2902;42.130;24.732;2023-04-06T04:47:24;10.30;;;9.60;;
5754;SDS011;2902;42.130;24.732;2023-04-06T04:49:52;10.53;;;9.40;;
5754;SDS011;2902;42.130;24.732;2023-04-06T04:52:19;11.30;;;9.40;;
5754;SDS011;2902;42.130;24.732;2023-04-06T04:54:46;9.87;;;9.13;;
5754;SDS011;2902;42.130;24.732;2023-04-06T04:57:13;11.17;;;10.27;;
5754;SDS011;2902;42.130;24.732;2023-04-06T04:59:39;20.87;;;13.47;;
5754;SDS011;2902;42.130;24.732;2023-04-06T05:02:06;10.23;;;9.33;;
5754;SDS011;2902;42.130;24.732;2023-04-06T05:04:33;10.47;;;9.47;;
5754;SDS011;2902;42.130;24.732;2023-04-06T05:07:05;10.07;;;8.97;;
5754;SDS011;2902;42.130;24.732;2023-04-06T05:09:33;9.57;;;8.77;;
5754;SDS011;2902;42.130;24.732;2023-04-06T05:11:59;13.33;;;9.77;;
5754;SDS011;2902;42.130;24.732;2023-04-06T05:14:27;11.80;;;9.07;;
5754;SDS011;2902;42.130;24.732;2023-04-06T05:16:54;10.17;;;9.27;;
5754;SDS011;2902;42.130;24.732;2023-04-06T05:19:21;12.97;;;8.87;;
5754;SDS011;2902;42.130;24.732;2023-04-06T05:21:47;16.77;;;10.37;;
5754;SDS011;2902;42.130;24.732;2023-04-06T05:24:15;10.27;;;9.00;;
5754;SDS011;2902;42.130;24.732;2023-04-06T05:26:42;10.20;;;9.30;;
5754;SDS011;2902;42.130;24.732;2023-04-06T05:29:10;9.47;;;8.77;;
5754;SDS011;2902;42.130;24.732;2023-04-06T05:31:37;19.93;;;9.50;;
5754;SDS011;2902;42.130;24.732;2023-04-06T05:34:04;9.53;;;8.87;;
5754;SDS011;2902;42.130;24.732;2023-04-06T05:36:31;10.43;;;9.10;;
5754;SDS011;2902;42.130;24.732;2023-04-06T05:38:58;9.53;;;8.73;;
5754;SDS011;2902;42.130;24.732;2023-04-06T05:41:26;48.77;;;11.30;;
5754;SDS011;2902;42.130;24.732;2023-04-06T05:43:53;10.97;;;9.17;;
5754;SDS011;2902;42.130;24.732;2023-04-06T05:46:19;8.90;;;8.23;;
5754;SDS011;2902;42.130;24.732;2023-04-06T05:48:46;9.53;;;8.60;;
5754;SDS011;2902;42.130;24.732;2023-04-06T05:51:13;9.23;;;8.37;;
5754;SDS011;2902;42.130;24.732;2023-04-06T05:53:40;60.73;;;9.73;;
5754;SDS011;2902;42.130;24.732;2023-04-06T05:56:06;8.47;;;7.70;;
5754;SDS011;2902;42.130;24.732;2023-04-06T05:58:35;24.00;;;8.40;;
5754;SDS011;2902;42.130;24.732;2023-04-06T06:01:01;9.03;;;7.77;;
5754;SDS011;2902;42.130;24.732;2023-04-06T06:03:30;7.30;;;6.70;;
5754;SDS011;2902;42.130;24.732;2023-04-06T06:06:00;8.07;;;7.37;;
5754;SDS011;2902;42.130;24.732;2023-04-06T06:08:27;7.43;;;6.83;;
5754;SDS011;2902;42.130;24.732;2023-04-06T06:10:54;7.57;;;7.07;;
5754;SDS011;2902;42.130;24.732;2023-04-06T06:13:20;16.87;;;8.13;;
5754;SDS011;2902;42.130;24.732;2023-04-06T06:15:49;9.43;;;8.00;;
5754;SDS011;2902;42.130;24.732;2023-04-06T06:18:16;8.17;;;7.57;;
5754;SDS011;2902;42.130;24.732;2023-04-06T06:20:43;9.77;;;7.17;;
5754;SDS011;2902;42.130;24.732;2023-04-06T06:23:10;8.10;;;7.30;;
5754;SDS011;2902;42.130;24.732;2023-04-06T06:25:37;8.63;;;7.77;;
5754;SDS011;2902;42.130;24.732;2023-04-06T06:28:04;7.87;;;7.00;;
5754;SDS011;2902;42.130;24.732;2023-04-06T06:30:31;7.00;;;6.60;;
5754;SDS011;2902;42.130;24.732;2023-04-06T06:32:59;8.40;;;7.80;;
5754;SDS011;2902;42.130;24.732;2023-04-06T06:35:26;6.23;;;5.73;;
5754;SDS011;2902;42.130;24.732;2023-04-06T06:37:52;13.73;;;7.10;;
5754;SDS011;2902;42.130;24.732;2023-04-06T06:40:19;7.40;;;6.83;;
5754;SDS011;2902;42.130;24.732;2023-04-06T06:42:48;6.80;;;6.17;;
5754;SDS011;2902;42.130;24.732;2023-04-06T06:45:15;6.70;;;6.20;;
5754;SDS011;2902;42.130;24.732;2023-04-06T06:47:42;58.97;;;8.73;;
5754;SDS011;2902;42.130;24.732;2023-04-06T06:50:11;7.27;;;6.77;;
5754;SDS011;2902;42.130;24.732;2023-04-06T06:52:38;6.73;;;6.33;;
5754;SDS011;2902;42.130;24.732;2023-04-06T06:55:06;7.07;;;6.57;;
5754;SDS011;2902;42.130;24.732;2023-04-06T06:57:34;7.27;;;6.57;;
5754;SDS011;2902;42.130;24.732;2023-04-06T07:00:01;18.03;;;7.43;;
5754;SDS011;2902;42.130;24.732;2023-04-06T07:02:28;10.57;;;6.93;;
5754;SDS011;2902;42.130;24.732;2023-04-06T07:04:54;7.47;;;6.83;;
5754;SDS011;2902;42.130;24.732;2023-04-06T07:07:23;7.50;;;6.90;;
5754;SDS011;2902;42.130;24.732;2023-04-06T07:09:49;7.23;;;6.70;;
5754;SDS011;2902;42.130;24.732;2023-04-06T07:12:16;6.13;;;5.73;;
5754;SDS011;2902;42.130;24.732;2023-04-06T07:14:43;7.47;;;6.93;;
5754;SDS011;2902;42.130;24.732;2023-04-06T07:17:10;7.07;;;6.53;;
5754;SDS011;2902;42.130;24.732;2023-04-06T07:19:36;7.93;;;6.93;;
5754;SDS011;2902;42.130;24.732;2023-04-06T07:22:03;6.43;;;6.03;;
5754;SDS011;2902;42.130;24.732;2023-04-06T07:24:31;6.80;;;6.20;;
5754;SDS011;2902;42.130;24.732;2023-04-06T07:26:58;6.77;;;6.27;;
5754;SDS011;2902;42.130;24.732;2023-04-06T07:29:26;14.17;;;6.80;;
5754;SDS011;2902;42.130;24.732;2023-04-06T07:31:52;17.27;;;6.17;;
5754;SDS011;2902;42.130;24.732;2023-04-06T07:34:19;20.37;;;5.70;;
5754;SDS011;2902;42.130;24.732;2023-04-06T07:36:46;5.83;;;5.33;;
5754;SDS011;2902;42.130;24.732;2023-04-06T07:39:13;5.80;;;5.30;;
5754;SDS011;2902;42.130;24.732;2023-04-06T07:41:41;7.77;;;6.20;;
5754;SDS011;2902;42.130;24.732;2023-04-06T07:44:08;6.23;;;5.70;;
5754;SDS011;2902;42.130;24.732;2023-04-06T07:46:35;6.40;;;6.00;;
5754;SDS011;2902;42.130;24.732;2023-04-06T07:49:02;8.13;;;6.20;;
5754;SDS011;2902;42.130;24.732;2023-04-06T07:51:29;42.43;;;8.47;;
5754;SDS011;2902;42.130;24.732;2023-04-06T07:53:56;7.03;;;5.87;;
5754;SDS011;2902;42.130;24.732;2023-04-06T07:56:23;7.47;;;6.43;;
5754;SDS011;2902;42.130;24.732;2023-04-06T07:58:51;10.30;;;6.03;;
5754;SDS011;2902;42.130;24.732;2023-04-06T08:01:20;6.27;;;5.87;;
5754;SDS011;2902;42.130;24.732;2023-04-06T08:03:47;5.50;;;5.20;;
5754;SDS011;2902;42.130;24.732;2023-04-06T08:06:14;9.97;;;6.57;;
5754;SDS011;2902;42.130;24.732;2023-04-06T08:08:41;6.57;;;5.70;;
5754;SDS011;2902;42.130;24.732;2023-04-06T08:11:08;14.70;;;6.53;;
5754;SDS011;2902;42.130;24.732;2023-04-06T08:13:35;14.70;;;6.80;;
5754;SDS011;2902;42.130;24.732;2023-04-06T08:16:03;7.07;;;6.40;;
5754;SDS011;2902;42.130;24.732;2023-04-06T08:18:31;6.33;;;5.83;;
5754;SDS011;2902;42.130;24.732;2023-04-06T08:20:57;77.87;;;9.97;;
5754;SDS011;2902;42.130;24.732;2023-04-06T08:23:24;8.83;;;7.20;;
5754;SDS011;2902;42.130;24.732;2023-04-06T08:25:51;62.57;;;11.00;;
5754;SDS011;2902;42.130;24.732;2023-04-06T08:28:19;7.33;;;6.50;;
5754;SDS011;2902;42.130;24.732;2023-04-06T08:30:46;6.57;;;6.07;;
5754;SDS011;2902;42.130;24.732;2023-04-06T08:33:14;8.87;;;6.83;;
5754;SDS011;2902;42.130;24.732;2023-04-06T08:35:41;11.17;;;6.67;;
5754;SDS011;2902;42.130;24.732;2023-04-06T08:38:07;9.17;;;6.57;;
5754;SDS011;2902;42.130;24.732;2023-04-06T08:40:35;7.57;;;6.10;;
5754;SDS011;2902;42.130;24.732;2023-04-06T08:43:03;6.63;;;5.57;;
5754;SDS011;2902;42.130;24.732;2023-04-06T08:45:33;22.53;;;7.07;;
5754;SDS011;2902;42.130;24.732;2023-04-06T08:48:00;6.37;;;5.97;;
5754;SDS011;2902;42.130;24.732;2023-04-06T08:50:31;6.33;;;5.83;;
5754;SDS011;2902;42.130;24.732;2023-04-06T08:53:00;10.57;;;7.53;;
5754;SDS011;2902;42.130;24.732;2023-04-06T08:55:27;22.20;;;8.23;;
5754;SDS011;2902;42.130;24.732;2023-04-06T08:57:54;14.33;;;6.43;;
5754;SDS011;2902;42.130;24.732;2023-04-06T09:00:21;5.93;;;5.53;;
5754;SDS011;2902;42.130;24.732;2023-04-06T09:02:49;8.77;;;6.47;;
5754;SDS011;2902;42.130;24.732;2023-04-06T09:05:20;5.80;;;5.50;;
5754;SDS011;2902;42.130;24.732;2023-04-06T09:07:51;9.20;;;6.53;;
5754;SDS011;2902;42.130;24.732;2023-04-06T09:10:18;6.90;;;6.00;;
5754;SDS011;2902;42.130;24.732;2023-04-06T09:12:45;8.17;;;6.30;;
5754;SDS011;2902;42.130;24.732;2023-04-06T09:15:21;6.87;;;6.07;;
5754;SDS011;2902;42.130;24.732;2023-04-06T09:17:48;5.33;;;5.03;;
5754;SDS011;2902;42.130;24.732;2023-04-06T09:20:21;7.50;;;5.60;;
5754;SDS011;2902;42.130;24.732;2023-04-06T09:22:52;6.87;;;6.20;;
5754;SDS011;2902;42.130;24.732;2023-04-06T09:25:19;6.53;;;5.23;;
5754;SDS011;2902;42.130;24.732;2023-04-06T09:27:48;6.30;;;5.80;;
5754;SDS011;2902;42.130;24.732;2023-04-06T09:30:24;6.03;;;5.63;;
5754;SDS011;2902;42.130;24.732;2023-04-06T09:32:52;5.87;;;5.13;;
5754;SDS011;2902;42.130;24.732;2023-04-06T09:35:20;5.07;;;4.73;;
5754;SDS011;2902;42.130;24.732;2023-04-06T09:37:48;4.77;;;4.27;;
5754;SDS011;2902;42.130;24.732;2023-04-06T09:40:18;12.07;;;4.87;;
5754;SDS011;2902;42.130;24.732;2023-04-06T09:42:47;4.97;;;4.27;;
5754;SDS011;2902;42.130;24.732;2023-04-06T09:45:15;5.23;;;4.93;;
5754;SDS011;2902;42.130;24.732;2023-04-06T09:47:43;16.07;;;4.93;;
5754;SDS011;2902;42.130;24.732;2023-04-06T09:50:12;9.97;;;4.80;;
5754;SDS011;2902;42.130;24.732;2023-04-06T09:52:41;20.47;;;4.37;;
5754;SDS011;2902;42.130;24.732;2023-04-06T09:55:12;18.13;;;4.30;;
5754;SDS011;2902;42.130;24.732;2023-04-06T09:57:50;4.07;;;3.67;;
5754;SDS011;2902;42.130;24.732;2023-04-06T10:00:22;6.00;;;3.80;;
5754;SDS011;2902;42.130;24.732;2023-04-06T10:02:50;4.47;;;3.80;;
5754;SDS011;2902;42.130;24.732;2023-04-06T10:05:22;4.17;;;3.90;;
5754;SDS011;2902;42.130;24.732;2023-04-06T10:07:59;7.03;;;4.20;;
5754;SDS011;2902;42.130;24.732;2023-04-06T10:10:32;14.77;;;4.40;;
5754;SDS011;2902;42.130;24.732;2023-04-06T10:12:59;4.07;;;3.70;;
5754;SDS011;2902;42.130;24.732;2023-04-06T10:15:27;4.93;;;3.83;;
5754;SDS011;2902;42.130;24.732;2023-04-06T10:17:54;9.87;;;3.90;;
5754;SDS011;2902;42.130;24.732;2023-04-06T10:20:22;5.50;;;3.37;;
5754;SDS011;2902;42.130;24.732;2023-04-06T10:22:56;22.40;;;5.30;;
5754;SDS011;2902;42.130;24.732;2023-04-06T10:25:28;4.20;;;3.90;;
5754;SDS011;2902;42.130;24.732;2023-04-06T10:28:04;4.17;;;3.80;;
5754;SDS011;2902;42.130;24.732;2023-04-06T10:30:32;4.60;;;4.20;;
5754;SDS011;2902;42.130;24.732;2023-04-06T10:32:59;12.80;;;3.73;;
5754;SDS011;2902;42.130;24.732;2023-04-06T10:35:36;4.20;;;4.00;;
5754;SDS011;2902;42.130;24.732;2023-04-06T10:38:04;4.17;;;3.87;;
5754;SDS011;2902;42.130;24.732;2023-04-06T10:40:32;10.00;;;4.17;;
5754;SDS011;2902;42.130;24.732;2023-04-06T10:43:11;6.07;;;4.10;;
5754;SDS011;2902;42.130;24.732;2023-04-06T10:45:39;7.50;;;4.30;;
5754;SDS011;2902;42.130;24.732;2023-04-06T10:48:14;6.13;;;4.00;;
5754;SDS011;2902;42.130;24.732;2023-04-06T10:50:41;4.40;;;4.10;;
5754;SDS011;2902;42.130;24.732;2023-04-06T10:53:11;14.03;;;4.97;;
5754;SDS011;2902;42.130;24.732;2023-04-06T10:55:38;3.93;;;3.73;;
5754;SDS011;2902;42.130;24.732;2023-04-06T10:58:06;16.40;;;4.27;;
5754;SDS011;2902;42.130;24.732;2023-04-06T11:00:34;4.17;;;3.80;;
5754;SDS011;2902;42.130;24.732;2023-04-06T11:03:01;4.17;;;3.70;;
5754;SDS011;2902;42.130;24.732;2023-04-06T11:05:28;5.97;;;4.00;;
5754;SDS011;2902;42.130;24.732;2023-04-06T11:07:55;3.80;;;3.40;;
5754;SDS011;2902;42.130;24.732;2023-04-06T11:10:22;4.47;;;3.73;;
5754;SDS011;2902;42.130;24.732;2023-04-06T11:12:53;3.50;;;3.30;;
5754;SDS011;2902;42.130;24.732;2023-04-06T11:15:21;4.00;;;3.80;;
5754;SDS011;2902;42.130;24.732;2023-04-06T11:17:49;4.60;;;4.30;;
5754;SDS011;2902;42.130;24.732;2023-04-06T11:20:16;6.20;;;4.43;;
5754;SDS011;2902;42.130;24.732;2023-04-06T11:22:48;4.63;;;4.33;;
5754;SDS011;2902;42.130;24.732;2023-04-06T11:25:15;4.20;;;3.90;;
5754;SDS011;2902;42.130;24.732;2023-04-06T11:27:43;20.00;;;4.97;;
5754;SDS011;2902;42.130;24.732;2023-04-06T11:30:11;8.77;;;4.20;;
5754;SDS011;2902;42.130;24.732;2023-04-06T11:32:39;4.40;;;4.00;;
5754;SDS011;2902;42.130;24.732;2023-04-06T11:35:09;4.00;;;3.70;;
5754;SDS011;2902;42.130;24.732;2023-04-06T11:37:37;4.83;;;3.37;;
5754;SDS011;2902;42.130;24.732;2023-04-06T11:40:07;7.10;;;4.00;;
5754;SDS011;2902;42.130;24.732;2023-04-06T11:42:34;3.87;;;3.50;;
5754;SDS011;2902;42.130;24.732;2023-04-06T11:45:02;4.73;;;3.70;;
5754;SDS011;2902;42.130;24.732;2023-04-06T11:47:29;4.80;;;4.50;;
5754;SDS011;2902;42.130;24.732;2023-04-06T11:50:04;7.40;;;4.67;;
5754;SDS011;2902;42.130;24.732;2023-04-06T11:52:33;4.83;;;4.63;;
5754;SDS011;2902;42.130;24.732;2023-04-06T11:55:09;5.10;;;4.60;;
5754;SDS011;2902;42.130;24.732;2023-04-06T11:57:37;4.13;;;3.93;;
5754;SDS011;2902;42.130;24.732;2023-04-06T12:00:05;6.33;;;5.80;;
5754;SDS011;2902;42.130;24.732;2023-04-06T12:02:32;5.57;;;5.13;;
5754;SDS011;2902;42.130;24.732;2023-04-06T12:04:59;10.53;;;5.40;;
5754;SDS011;2902;42.130;24.732;2023-04-06T12:07:26;5.57;;;5.10;;
5754;SDS011;2902;42.130;24.732;2023-04-06T12:09:54;6.07;;;5.43;;
5754;SDS011;2902;42.130;24.732;2023-04-06T12:12:21;6.87;;;4.47;;
5754;SDS011;2902;42.130;24.732;2023-04-06T12:14:47;5.20;;;4.80;;
5754;SDS011;2902;42.130;24.732;2023-04-06T12:17:14;5.70;;;5.30;;
5754;SDS011;2902;42.130;24.732;2023-04-06T12:19:41;5.23;;;4.73;;
5754;SDS011;2902;42.130;24.732;2023-04-06T12:22:08;21.93;;;5.47;;
5754;SDS011;2902;42.130;24.732;2023-04-06T12:24:34;5.57;;;5.07;;
5754;SDS011;2902;42.130;24.732;2023-04-06T12:27:03;5.47;;;5.07;;
5754;SDS011;2902;42.130;24.732;2023-04-06T12:29:29;5.77;;;5.20;;
5754;SDS011;2902;42.130;24.732;2023-04-06T12:31:56;5.97;;;5.23;;
5754;SDS011;2902;42.130;24.732;2023-04-06T12:34:23;5.67;;;5.30;;
5754;SDS011;2902;42.130;24.732;2023-04-06T12:36:50;6.27;;;5.67;;
5754;SDS011;2902;42.130;24.732;2023-04-06T12:39:18;6.87;;;5.23;;
5754;SDS011;2902;42.130;24.732;2023-04-06T12:41:45;4.97;;;4.67;;
5754;SDS011;2902;42.130;24.732;2023-04-06T12:44:13;12.37;;;6.07;;
5754;SDS011;2902;42.130;24.732;2023-04-06T12:46:40;5.73;;;5.30;;
5754;SDS011;2902;42.130;24.732;2023-04-06T12:49:08;6.30;;;4.60;;
5754;SDS011;2902;42.130;24.732;2023-04-06T12:51:35;6.87;;;5.20;;
5754;SDS011;2902;42.130;24.732;2023-04-06T12:54:01;20.50;;;6.37;;
5754;SDS011;2902;42.130;24.732;2023-04-06T12:56:28;9.10;;;5.23;;
5754;SDS011;2902;42.130;24.732;2023-04-06T12:58:56;7.67;;;5.40;;
5754;SDS011;2902;42.130;24.732;2023-04-06T13:01:24;4.93;;;4.60;;
5754;SDS011;2902;42.130;24.732;2023-04-06T13:03:52;5.17;;;4.77;;
5754;SDS011;2902;42.130;24.732;2023-04-06T13:06:19;6.27;;;5.60;;
5754;SDS011;2902;42.130;24.732;2023-04-06T13:08:46;5.10;;;4.80;;
5754;SDS011;2902;42.130;24.732;2023-04-06T13:11:15;13.57;;;5.67;;
5754;SDS011;2902;42.130;24.732;2023-04-06T13:13:42;6.63;;;5.87;;
5754;SDS011;2902;42.130;24.732;2023-04-06T13:16:09;9.47;;;6.00;;
5754;SDS011;2902;42.130;24.732;2023-04-06T13:18:37;6.37;;;5.63;;
5754;SDS011;2902;42.130;24.732;2023-04-06T13:21:04;6.13;;;5.70;;
5754;SDS011;2902;42.130;24.732;2023-04-06T13:23:31;6.50;;;5.37;;
5754;SDS011;2902;42.130;24.732;2023-04-06T13:25:58;29.53;;;7.57;;
5754;SDS011;2902;42.130;24.732;2023-04-06T13:28:26;71.87;;;9.00;;
5754;SDS011;2902;42.130;24.732;2023-04-06T13:30:53;7.37;;;5.40;;
5754;SDS011;2902;42.130;24.732;2023-04-06T13:33:20;26.80;;;7.03;;
5754;SDS011;2902;42.130;24.732;2023-04-06T13:35:49;8.40;;;6.17;;
5754;SDS011;2902;42.130;24.732;2023-04-06T13:38:15;6.83;;;6.27;;
5754;SDS011;2902;42.130;24.732;2023-04-06T13:40:42;6.20;;;5.70;;
5754;SDS011;2902;42.130;24.732;2023-04-06T13:43:09;7.53;;;6.17;;
5754;SDS011;2902;42.130;24.732;2023-04-06T13:45:36;15.43;;;7.97;;
5754;SDS011;2902;42.130;24.732;2023-04-06T13:48:03;5.60;;;5.23;;
5754;SDS011;2902;42.130;24.732;2023-04-06T13:50:30;7.33;;;5.83;;
5754;SDS011;2902;42.130;24.732;2023-04-06T13:52:58;5.73;;;5.33;;
5754;SDS011;2902;42.130;24.732;2023-04-06T13:55:25;8.70;;;5.33;;
5754;SDS011;2902;42.130;24.732;2023-04-06T13:57:52;20.17;;;7.00;;
5754;SDS011;2902;42.130;24.732;2023-04-06T14:00:20;12.23;;;5.97;;
5754;SDS011;2902;42.130;24.732;2023-04-06T14:02:47;6.00;;;5.40;;
5754;SDS011;2902;42.130;24.732;2023-04-06T14:05:14;6.60;;;5.93;;
5754;SDS011;2902;42.130;24.732;2023-04-06T14:07:40;17.17;;;5.37;;
5754;SDS011;2902;42.130;24.732;2023-04-06T14:10:09;5.53;;;5.13;;
5754;SDS011;2902;42.130;24.732;2023-04-06T14:12:39;6.70;;;5.37;;
5754;SDS011;2902;42.130;24.732;2023-04-06T14:15:07;5.93;;;5.23;;
5754;SDS011;2902;42.130;24.732;2023-04-06T14:17:35;8.73;;;5.13;;
5754;SDS011;2902;42.130;24.732;2023-04-06T14:20:01;108.40;;;11.40;;
5754;SDS011;2902;42.130;24.732;2023-04-06T14:22:28;7.17;;;4.83;;
5754;SDS011;2902;42.130;24.732;2023-04-06T14:24:55;5.20;;;4.80;;
5754;SDS011;2902;42.130;24.732;2023-04-06T14:27:23;10.63;;;4.90;;
5754;SDS011;2902;42.130;24.732;2023-04-06T14:29:51;6.80;;;5.70;;
5754;SDS011;2902;42.130;24.732;2023-04-06T14:32:18;6.23;;;5.73;;
5754;SDS011;2902;42.130;24.732;2023-04-06T14:34:45;6.87;;;5.17;;
5754;SDS011;2902;42.130;24.732;2023-04-06T14:37:12;18.90;;;5.27;;
5754;SDS011;2902;42.130;24.732;2023-04-06T14:39:39;18.63;;;5.40;;
5754;SDS011;2902;42.130;24.732;2023-04-06T14:42:06;4.93;;;4.60;;
5754;SDS011;2902;42.130;24.732;2023-04-06T14:44:34;16.87;;;5.50;;
5754;SDS011;2902;42.130;24.732;2023-04-06T14:47:01;5.07;;;4.87;;
5754;SDS011;2902;42.130;24.732;2023-04-06T14:49:29;5.33;;;4.83;;
5754;SDS011;2902;42.130;24.732;2023-04-06T14:51:56;6.33;;;5.20;;
5754;SDS011;2902;42.130;24.732;2023-04-06T14:54:23;4.97;;;4.60;;